Shanghai Express — DPCK — position and weather

sailwx.info

Track history (hours):
 
Tides and Currents Weather Stations Pressure Air Temp Water Temp Dewpoint Dewpoint Depression Visibility Wind Speed Wind Dir Waves Ship Positions

Shanghai Express

Last reported at 2015-Jul-24 13:20 UTC. Time now 2015-Jul-29 15:53 UTC.
Position N 03°04' E 100°44'.

Length 320.6 m; beam 42.8 m; draft 14.5 m.

Type: Ship (hazmat cat A). MMSI: 211367460.

Date/timePositionNaut miles runAvg speedWind from/ knotsBaromVisibWave heightAir tempDewpointWater temp
2015-Jul-24 13:20N 03°04' E 100°44'3218.1
2015-Jul-24 11:33N 02°45' E 101°11'3718.4
2015-Jul-24 09:33N 02°25' E 101°41'15018.7
2015-Jul-24 01:33N 01°12' E 103°52'4 3.6
2015-Jul-24 00:28N 01°16' E 103°50'0 0.1
2015-Jul-23 23:30N 01°16' E 103°51'0 0.1
2015-Jul-23 22:27N 01°16' E 103°50'0 0.0
2015-Jul-23 21:27N 01°16' E 103°50'0 0.0
2015-Jul-23 20:20N 01°16' E 103°50'0 0.0
2015-Jul-23 19:32N 01°16' E 103°50'0 0.0
2015-Jul-23 18:25N 01°16' E 103°50'0 0.0
2015-Jul-23 17:31N 01°16' E 103°50'0 0.0
2015-Jul-23 16:33N 01°16' E 103°50'0 0.0
2015-Jul-23 15:18N 01°16' E 103°50'0 0.0
2015-Jul-23 14:24N 01°16' E 103°50'0 0.0
2015-Jul-23 13:17N 01°16' E 103°50'0 0.0
2015-Jul-23 08:33N 01°16' E 103°50'0 0.0
2015-Jul-23 07:33N 01°16' E 103°50'0 0.0
2015-Jul-23 06:33N 01°16' E 103°50'0 0.1
2015-Jul-23 05:28N 01°16' E 103°51'0 0.1
2015-Jul-23 04:26N 01°16' E 103°50'0 0.1
2015-Jul-23 03:29N 01°16' E 103°51'0 0.2
2015-Jul-23 02:33N 01°16' E 103°51'3 3.1
2015-Jul-23 01:31N 01°14' E 103°53'1414.7
2015-Jul-23 00:33N 01°17' E 104°07'  
2015-Jul-17 16:33N 01°15' E 104°05'1413.6
2015-Jul-17 15:32N 01°14' E 103°52'2 1.1
2015-Jul-17 13:33N 01°16' E 103°51'0 0.0
2015-Jul-16 23:03N 01°16' E 103°51'1 1.6
2015-Jul-16 22:32N 01°16' E 103°51'12613.4
2015-Jul-16 13:09N 02°08' E 101°57'2616.2
2015-Jul-16 11:33N 02°25' E 101°38'3417.2
2015-Jul-16 09:33N 02°44' E 101°09'1817.9
2015-Jul-16 08:33N 02°54' E 100°54'  
Track history (hours):
 
Tides and Currents Weather Stations Pressure Air Temp Water Temp Dewpoint Dewpoint Depression Visibility Wind Speed Wind Dir Waves Ship Positions

Shanghai Express

Last reported at 2015-Jul-24 13:20 UTC. Time now 2015-Jul-29 15:53 UTC.
Position N 03°04' E 100°44'.

Length 320.6 m; beam 42.8 m; draft 14.5 m.

Type: Ship (hazmat cat A). MMSI: 211367460.

Date/timePositionNaut miles runAvg speedWind from/ knotsBaromVisibWave heightAir tempDewpointWater temp
2015-Jul-24 13:20N 03°04' E 100°44'3218.1
2015-Jul-24 11:33N 02°45' E 101°11'3718.4
2015-Jul-24 09:33N 02°25' E 101°41'15018.7
2015-Jul-24 01:33N 01°12' E 103°52'4 3.6
2015-Jul-24 00:28N 01°16' E 103°50'0 0.1
2015-Jul-23 23:30N 01°16' E 103°51'0 0.1
2015-Jul-23 22:27N 01°16' E 103°50'0 0.0
2015-Jul-23 21:27N 01°16' E 103°50'0 0.0
2015-Jul-23 20:20N 01°16' E 103°50'0 0.0
2015-Jul-23 19:32N 01°16' E 103°50'0 0.0
2015-Jul-23 18:25N 01°16' E 103°50'0 0.0
2015-Jul-23 17:31N 01°16' E 103°50'0 0.0
2015-Jul-23 16:33N 01°16' E 103°50'0 0.0
2015-Jul-23 15:18N 01°16' E 103°50'0 0.0
2015-Jul-23 14:24N 01°16' E 103°50'0 0.0
2015-Jul-23 13:17N 01°16' E 103°50'0 0.0
2015-Jul-23 08:33N 01°16' E 103°50'0 0.0
2015-Jul-23 07:33N 01°16' E 103°50'0 0.0
2015-Jul-23 06:33N 01°16' E 103°50'0 0.1
2015-Jul-23 05:28N 01°16' E 103°51'0 0.1
2015-Jul-23 04:26N 01°16' E 103°50'0 0.1
2015-Jul-23 03:29N 01°16' E 103°51'0 0.2
2015-Jul-23 02:33N 01°16' E 103°51'3 3.1
2015-Jul-23 01:31N 01°14' E 103°53'1414.7
2015-Jul-23 00:33N 01°17' E 104°07'  
2015-Jul-17 16:33N 01°15' E 104°05'1413.6
2015-Jul-17 15:32N 01°14' E 103°52'2 1.1
2015-Jul-17 13:33N 01°16' E 103°51'0 0.0
2015-Jul-16 23:03N 01°16' E 103°51'1 1.6
2015-Jul-16 22:32N 01°16' E 103°51'12613.4
2015-Jul-16 13:09N 02°08' E 101°57'2616.2
2015-Jul-16 11:33N 02°25' E 101°38'3417.2
2015-Jul-16 09:33N 02°44' E 101°09'1817.9
2015-Jul-16 08:33N 02°54' E 100°54'  

Dump ship's entire track history